Time;durP1;ratioP1;P1;durP2;ratioP2;P2;SDS_P1;SDS_P2;PMS_P1;PMS_P2;Temp;Humidity;BMP_temperature;BMP_pressure;BME280_temperature;BME280_humidity;BME280_pressure;Samples;Min_cycle;Max_cycle;Signal;HPM_P1;HPM_P2
2023/09/06 00:00:45;;;;;;;11.35;7.65;;;;;;;16.76;100.00;101518.69;5028289;28;20434;-86
2023/09/06 00:03:14;;;;;;;12.00;7.80;;;;;;;16.77;100.00;101514.84;5030590;28;20906;-87
2023/09/06 00:05:42;;;;;;;13.57;8.00;;;;;;;16.75;100.00;101514.31;5030991;28;20438;-87
2023/09/06 00:08:16;;;;;;;15.90;7.97;;;;;;;16.76;100.00;101505.75;5029884;28;20423;-87
2023/09/06 00:10:49;;;;;;;25.13;7.68;;;;;;;16.78;100.00;101514.53;5029407;28;20430;-87
2023/09/06 00:13:22;;;;;;;25.85;7.75;;;;;;;16.83;100.00;101517.19;5026025;28;20949;-87
2023/09/06 00:15:52;;;;;;;23.88;7.38;;;;;;;16.84;100.00;101512.50;5029763;28;20446;-87
2023/09/06 00:18:20;;;;;;;18.23;7.55;;;;;;;16.78;100.00;101508.22;5030694;28;20422;-86
2023/09/06 00:20:54;;;;;;;21.35;7.60;;;;;;;16.72;100.00;101507.47;5030652;28;20918;-86
2023/09/06 00:23:27;;;;;;;21.27;7.78;;;;;;;16.69;100.00;101510.03;5031240;28;20436;-88
2023/09/06 00:25:55;;;;;;;24.20;8.32;;;;;;;16.71;100.00;101510.53;5046825;28;20414;-87
2023/09/06 00:28:24;;;;;;;22.17;7.50;;;;;;;16.75;100.00;101514.31;5030518;28;20426;-86
2023/09/06 00:30:56;;;;;;;15.35;7.25;;;;;;;16.79;100.00;101515.34;5029350;28;20410;-87
2023/09/06 00:33:33;;;;;;;13.73;7.30;;;;;;;16.78;100.00;101517.28;5028696;28;20439;-86
2023/09/06 00:36:06;;;;;;;11.45;6.82;;;;;;;16.76;100.00;101518.69;5028498;28;20427;-86
2023/09/06 00:38:40;;;;;;;13.27;6.47;;;;;;;16.72;100.00;101512.97;5029388;28;20434;-86
2023/09/06 00:41:13;;;;;;;13.23;6.67;;;;;;;16.63;100.00;101510.09;5028980;28;20442;-86
2023/09/06 00:43:47;;;;;;;16.38;7.40;;;;;;;16.62;100.00;101513.97;5027715;28;20411;-87
2023/09/06 00:46:18;;;;;;;12.15;6.90;;;;;;;16.58;100.00;101510.19;5029719;28;20418;-85
2023/09/06 00:48:50;;;;;;;10.23;6.90;;;;;;;16.60;100.00;101509.88;5028480;28;20457;-87
2023/09/06 00:51:20;;;;;;;12.63;6.80;;;;;;;16.61;100.00;101503.28;5028884;28;20418;-86
2023/09/06 00:53:53;;;;;;;14.65;7.05;;;;;;;16.64;100.00;101511.75;5045038;28;20434;-86
2023/09/06 00:56:22;;;;;;;11.98;6.80;;;;;;;16.65;100.00;101509.81;5030902;28;20426;-86
2023/09/06 00:58:55;;;;;;;10.80;6.95;;;;;;;16.56;100.00;101514.34;5026319;28;20439;-87
2023/09/06 01:01:33;;;;;;;10.90;6.88;;;;;;;16.51;100.00;101508.97;5029945;28;20438;-85
2023/09/06 01:04:01;;;;;;;12.55;6.82;;;;;;;16.46;100.00;101502.44;5028641;28;20442;-87
2023/09/06 01:06:36;;;;;;;13.27;6.88;;;;;;;16.44;100.00;101498.34;5027070;28;20899;-86
2023/09/06 01:09:07;;;;;;;12.00;7.47;;;;;;;16.43;100.00;101497.53;5026834;28;20427;-84
2023/09/06 01:11:41;;;;;;;10.90;6.60;;;;;;;16.41;100.00;101491.50;5028497;28;20435;-86
2023/09/06 01:14:09;;;;;;;10.93;6.73;;;;;;;16.43;100.00;101489.28;5027310;28;20926;-86
2023/09/06 01:16:47;;;;;;;11.82;6.50;;;;;;;16.41;100.00;101490.72;5041714;28;20939;-85
2023/09/06 01:19:24;;;;;;;10.80;6.22;;;;;;;16.44;100.00;101499.16;5028804;28;20438;-85
2023/09/06 01:22:04;;;;;;;12.15;6.15;;;;;;;16.45;100.00;101484.31;5045049;28;20545;-86
2023/09/06 01:24:39;;;;;;;11.07;6.57;;;;;;;16.42;100.00;101495.06;5027314;28;20425;-85
2023/09/06 01:27:09;;;;;;;10.70;6.07;;;;;;;16.36;100.00;101499.03;5029452;28;20411;-85
2023/09/06 01:29:37;;;;;;;13.95;6.57;;;;;;;16.30;100.00;101492.78;5035361;28;20427;-85
2023/09/06 01:32:11;;;;;;;12.63;6.65;;;;;;;16.23;100.00;101501.41;5027595;28;20431;-85
2023/09/06 01:34:39;;;;;;;10.75;6.32;;;;;;;16.24;100.00;101489.31;5043659;28;20795;-85
2023/09/06 01:37:07;;;;;;;10.10;6.15;;;;;;;16.25;100.00;101490.94;5029103;28;20426;-85
2023/09/06 01:39:36;;;;;;;10.70;6.13;;;;;;;16.24;100.00;101492.06;5029605;28;20407;-85
2023/09/06 01:42:06;;;;;;;11.18;5.90;;;;;;;16.24;100.00;101491.22;5036077;28;20434;-86
2023/09/06 01:44:39;;;;;;;9.82;5.75;;;;;;;16.25;100.00;101495.63;5029627;28;20434;-86
2023/09/06 01:47:13;;;;;;;10.07;5.78;;;;;;;16.13;100.00;101487.84;5026753;28;20430;-85
2023/09/06 01:49:46;;;;;;;9.20;5.60;;;;;;;16.10;100.00;101497.50;5027368;28;20820;-86
2023/09/06 01:52:19;;;;;;;10.40;5.80;;;;;;;16.08;100.00;101496.16;5028425;28;20446;-86
2023/09/06 01:54:52;;;;;;;8.95;5.93;;;;;;;16.06;100.00;101490.97;5041594;28;20419;-86
2023/09/06 01:57:22;;;;;;;11.43;6.00;;;;;;;16.04;100.00;101490.44;5028432;28;20429;-85
2023/09/06 01:59:50;;;;;;;8.82;5.88;;;;;;;15.99;100.00;101487.75;5027740;28;20438;-86
2023/09/06 02:02:18;;;;;;;12.15;5.70;;;;;;;15.97;100.00;101482.56;5027544;28;20419;-85
2023/09/06 02:04:47;;;;;;;8.55;5.40;;;;;;;16.01;100.00;101484.72;5026315;28;20454;-85
2023/09/06 02:07:20;;;;;;;12.32;6.00;;;;;;;16.04;100.00;101489.63;5024590;28;21133;-85
2023/09/06 02:09:55;;;;;;;8.45;5.47;;;;;;;15.99;100.00;101493.25;5027576;28;20830;-83
2023/09/06 02:12:30;;;;;;;9.20;6.10;;;;;;;15.92;100.00;101495.53;5029351;28;20414;-85
2023/09/06 02:14:58;;;;;;;9.18;5.85;;;;;;;15.85;100.00;101489.63;5026882;28;20438;-85
2023/09/06 02:17:31;;;;;;;10.43;6.10;;;;;;;15.90;100.00;101484.06;5025183;28;20434;-84
2023/09/06 02:20:13;;;;;;;10.25;6.00;;;;;;;15.90;100.00;101490.34;5027501;28;20430;-85
2023/09/06 02:22:48;;;;;;;11.30;5.32;;;;;;;15.86;100.00;101489.31;5027425;28;20895;-85
2023/09/06 02:25:24;;;;;;;10.77;5.45;;;;;;;15.83;100.00;101491.84;5026432;28;20433;-85
2023/09/06 02:28:03;;;;;;;9.30;6.00;;;;;;;15.79;100.00;101497.91;5028050;28;20880;-85
2023/09/06 02:30:37;;;;;;;9.38;5.90;;;;;;;15.68;100.00;101501.06;5027362;28;20427;-85
2023/09/06 02:33:13;;;;;;;10.80;6.20;;;;;;;15.68;100.00;101493.63;5043484;28;20435;-84
2023/09/06 02:35:42;;;;;;;9.05;5.70;;;;;;;15.70;100.00;101509.81;5028740;28;20454;-85
2023/09/06 02:38:11;;;;;;;10.35;5.60;;;;;;;15.65;100.00;101507.97;5028670;28;20803;-85
2023/09/06 02:40:41;;;;;;;10.15;5.90;;;;;;;15.61;100.00;101504.97;5026614;28;20420;-85
2023/09/06 02:43:16;;;;;;;10.13;5.87;;;;;;;15.62;100.00;101511.28;5026792;28;20920;-85
2023/09/06 02:45:54;;;;;;;10.38;6.50;;;;;;;15.61;100.00;101498.69;5029393;28;20406;-85
2023/09/06 02:48:29;;;;;;;9.35;5.68;;;;;;;15.59;100.00;101509.13;5026731;28;20423;-84
2023/09/06 02:51:02;;;;;;;12.05;6.63;;;;;;;15.54;100.00;101509.19;5032506;28;20795;-85
2023/09/06 02:53:31;;;;;;;10.53;6.53;;;;;;;15.54;100.00;101514.69;5043278;28;20431;-85
2023/09/06 02:55:59;;;;;;;10.82;6.75;;;;;;;15.54;100.00;101520.97;5026543;28;20414;-85
2023/09/06 02:58:28;;;;;;;10.53;6.90;;;;;;;15.55;100.00;101528.09;5028257;28;20430;-85
2023/09/06 03:01:06;;;;;;;9.63;6.50;;;;;;;15.52;100.00;101536.09;5035167;28;20411;-85
2023/09/06 03:03:42;;;;;;;11.18;7.40;;;;;;;15.54;100.00;101533.88;5025419;28;20442;-85
2023/09/06 03:06:18;;;;;;;10.68;7.30;;;;;;;15.54;100.00;101534.69;5034419;28;20423;-85
2023/09/06 03:08:51;;;;;;;10.52;7.18;;;;;;;15.53;100.00;101537.72;5027801;28;20442;-85
2023/09/06 03:11:24;;;;;;;11.03;7.37;;;;;;;15.52;100.00;101533.34;5029340;28;20921;-85
2023/09/06 03:13:59;;;;;;;11.13;7.13;;;;;;;15.46;100.00;101532.59;5027899;28;20454;-84
2023/09/06 03:16:27;;;;;;;13.73;7.43;;;;;;;15.39;100.00;101530.19;5025815;28;20417;-85
2023/09/06 03:18:55;;;;;;;11.82;7.40;;;;;;;15.34;100.00;101524.75;5042423;28;20427;-86
2023/09/06 03:21:30;;;;;;;10.20;6.93;;;;;;;15.31;100.00;101528.09;5026083;28;20422;-86
2023/09/06 03:23:59;;;;;;;11.48;7.05;;;;;;;15.30;100.00;101530.03;5027267;28;21360;-86
2023/09/06 03:26:33;;;;;;;10.55;6.40;;;;;;;15.32;100.00;101528.94;5029778;28;20960;-85
2023/09/06 03:29:03;;;;;;;10.05;6.45;;;;;;;15.30;100.00;101532.78;5043097;28;20763;-86
2023/09/06 03:31:34;;;;;;;9.13;6.30;;;;;;;15.33;100.00;101536.03;5029463;28;20887;-86
2023/09/06 03:34:02;;;;;;;9.77;6.50;;;;;;;15.32;100.00;101537.16;5027899;28;20431;-86
2023/09/06 03:36:30;;;;;;;9.90;5.90;;;;;;;15.31;100.00;101539.06;5035151;28;20403;-85
2023/09/06 03:39:06;;;;;;;9.23;6.13;;;;;;;15.31;100.00;101536.31;5032604;28;20419;-86
2023/09/06 03:41:34;;;;;;;9.88;6.18;;;;;;;15.32;100.00;101534.41;5048697;28;20419;-86
2023/09/06 03:44:09;;;;;;;9.73;6.30;;;;;;;15.31;100.00;101533.56;5043839;28;20783;-86
2023/09/06 03:46:42;;;;;;;10.20;6.07;;;;;;;15.28;100.00;101526.75;5031433;28;20903;-86
2023/09/06 03:49:15;;;;;;;10.33;6.60;;;;;;;15.26;100.00;101533.63;5045131;28;20430;-86
2023/09/06 03:51:44;;;;;;;10.95;6.13;;;;;;;15.25;100.00;101524.59;5037937;28;20419;-86
2023/09/06 03:54:18;;;;;;;10.43;5.93;;;;;;;15.24;100.00;101533.13;5032426;28;20426;-87
2023/09/06 03:56:46;;;;;;;9.48;6.30;;;;;;;15.25;100.00;101532.81;5032501;28;20423;-86
2023/09/06 03:59:16;;;;;;;9.75;6.10;;;;;;;15.28;100.00;101540.47;5032600;28;20422;-86
2023/09/06 04:01:45;;;;;;;10.57;6.20;;;;;;;15.28;100.00;101537.72;5034227;28;20427;-87
2023/09/06 04:04:19;;;;;;;11.02;5.93;;;;;;;15.22;100.00;101529.81;5030079;28;20434;-87
2023/09/06 04:06:52;;;;;;;10.95;6.55;;;;;;;15.30;100.00;101543.75;5029698;28;20411;-86
2023/09/06 04:09:30;;;;;;;10.60;6.53;;;;;;;15.26;100.00;101536.38;5032509;28;20426;-87
2023/09/06 04:12:00;;;;;;;9.63;6.60;;;;;;;15.25;100.00;101535.56;5031196;28;20411;-87
2023/09/06 04:14:29;;;;;;;10.20;7.17;;;;;;;15.20;100.00;101538.34;5026871;28;20437;-86
2023/09/06 04:16:59;;;;;;;11.95;7.35;;;;;;;15.18;100.00;101537.00;5047310;28;20434;-86
2023/09/06 04:19:33;;;;;;;12.63;7.75;;;;;;;15.12;100.00;101539.81;5028758;28;20915;-86
2023/09/06 04:22:07;;;;;;;9.68;6.50;;;;;;;15.08;100.00;101544.25;5025201;28;20427;-86
2023/09/06 04:24:39;;;;;;;11.50;6.72;;;;;;;15.06;100.00;101546.44;5045330;28;20411;-87
2023/09/06 04:27:11;;;;;;;10.20;6.90;;;;;;;15.01;100.00;101538.28;5027975;28;20420;-87
2023/09/06 04:29:46;;;;;;;9.68;6.88;;;;;;;14.96;100.00;101544.63;5032110;28;20422;-87
2023/09/06 04:32:19;;;;;;;9.80;6.57;;;;;;;14.98;100.00;101547.06;5028458;28;20779;-87
2023/09/06 04:34:54;;;;;;;10.60;6.93;;;;;;;14.99;100.00;101543.22;5045538;28;20775;-88
2023/09/06 04:37:27;;;;;;;10.93;7.50;;;;;;;14.96;100.00;101538.31;5030695;28;20411;-88
2023/09/06 04:40:01;;;;;;;12.82;7.10;;;;;;;14.96;100.00;101538.31;5025678;28;20883;-87
2023/09/06 04:42:34;;;;;;;10.57;6.50;;;;;;;14.99;100.00;101543.22;5030162;28;20427;-87
2023/09/06 04:45:11;;;;;;;15.70;7.60;;;;;;;15.00;100.00;101544.03;5030853;28;20418;-88
2023/09/06 04:47:44;;;;;;;12.85;7.68;;;;;;;14.99;100.00;101540.47;5027068;28;20419;-87
2023/09/06 04:50:18;;;;;;;11.55;7.15;;;;;;;14.98;100.00;101538.03;5026269;28;20419;-87
2023/09/06 04:52:52;;;;;;;13.60;7.35;;;;;;;15.00;100.00;101549.50;5030292;28;20895;-88
2023/09/06 04:55:23;;;;;;;12.52;6.93;;;;;;;15.03;100.00;101546.22;5047205;28;20419;-87
2023/09/06 04:57:53;;;;;;;10.30;6.77;;;;;;;15.05;100.00;101546.72;5033978;28;20771;-87
2023/09/06 05:00:32;;;;;;;10.93;6.60;;;;;;;15.12;100.00;101542.56;5046713;28;20484;-87
2023/09/06 05:03:08;;;;;;;9.53;6.50;;;;;;;15.18;100.00;101551.53;4981273;28;1776465;-87
2023/09/06 05:05:36;;;;;;;10.52;6.47;;;;;;;15.23;100.00;101553.41;5028077;28;20432;-87
2023/09/06 05:08:10;;;;;;;11.45;6.50;;;;;;;15.23;100.00;101559.72;5023363;28;20417;-88
2023/09/06 05:10:43;;;;;;;10.18;6.68;;;;;;;15.28;100.00;101562.41;5043103;28;20776;-87
2023/09/06 05:13:12;;;;;;;9.97;6.50;;;;;;;15.30;100.00;101559.34;5033419;28;20799;-88
2023/09/06 05:15:44;;;;;;;11.15;6.70;;;;;;;15.30;100.00;101562.09;5026653;28;20416;-88
2023/09/06 05:18:14;;;;;;;10.38;6.30;;;;;;;15.33;100.00;101567.03;5030330;28;20431;-88
2023/09/06 05:20:44;;;;;;;10.32;6.65;;;;;;;15.39;100.00;101563.13;5030948;28;20419;-87
2023/09/06 05:23:19;;;;;;;9.48;6.50;;;;;;;15.48;100.00;101564.13;5029300;28;20435;-88
2023/09/06 05:25:47;;;;;;;11.02;6.60;;;;;;;15.55;100.00;101565.69;5028230;28;20435;-87
2023/09/06 05:28:29;;;;;;;10.95;6.32;;;;;;;15.67;100.00;101571.56;5028333;28;20440;-87
2023/09/06 05:31:03;;;;;;;8.98;6.13;;;;;;;15.77;100.00;101573.38;5028505;28;20427;-85
2023/09/06 05:33:38;;;;;;;8.83;5.70;;;;;;;15.85;100.00;101578.25;5026901;28;20775;-86
2023/09/06 05:36:12;;;;;;;8.65;5.85;;;;;;;15.93;100.00;101563.06;5028532;28;20404;-85
2023/09/06 05:38:45;;;;;;;8.10;5.90;;;;;;;15.97;100.00;101564.91;5029465;28;20418;-88
2023/09/06 05:41:14;;;;;;;9.77;5.80;;;;;;;15.99;100.00;101564.63;5026504;28;20455;-87
2023/09/06 05:43:44;;;;;;;11.70;6.07;;;;;;;16.07;100.00;101574.94;5025568;28;20429;-86
2023/09/06 05:46:20;;;;;;;9.50;6.30;;;;;;;16.13;100.00;101570.22;5043200;28;20419;-86
2023/09/06 05:48:50;;;;;;;9.97;6.17;;;;;;;16.19;100.00;101574.53;5044977;28;20811;-85
2023/09/06 05:51:25;;;;;;;9.55;6.35;;;;;;;16.30;100.00;101581.50;5044719;28;20903;-87
2023/09/06 05:53:54;;;;;;;10.53;5.90;;;;;;;16.38;100.00;101582.78;5028897;28;20419;-88
2023/09/06 05:56:28;;;;;;;9.13;6.00;;;;;;;16.47;100.00;101581.00;5028920;28;20415;-86
2023/09/06 05:58:56;;;;;;;10.00;5.90;;;;;;;16.54;100.00;101580.59;5042907;28;20419;-86
2023/09/06 06:01:30;;;;;;;9.15;5.78;;;;;;;16.58;100.00;101587.13;5043749;28;20427;-86
2023/09/06 06:04:04;;;;;;;13.07;6.07;;;;;;;16.63;100.00;101581.56;5027807;28;20540;-87
2023/09/06 06:06:32;;;;;;;9.35;5.75;;;;;;;16.77;100.00;101586.31;5027925;28;20435;-87
2023/09/06 06:09:05;;;;;;;9.40;5.18;;;;;;;16.89;100.00;101583.94;5028851;28;20437;-87
2023/09/06 06:11:40;;;;;;;9.00;5.30;;;;;;;17.01;100.00;101591.69;5028206;28;20477;-85
2023/09/06 06:14:08;;;;;;;7.82;5.30;;;;;;;16.95;100.00;101595.66;5028641;28;20415;-85
2023/09/06 06:16:43;;;;;;;10.63;5.70;;;;;;;17.08;100.00;101605.06;5026995;28;20426;-86
2023/09/06 06:19:11;;;;;;;10.63;5.20;;;;;;;17.12;100.00;101603.34;5028602;28;20437;-86
2023/09/06 06:21:45;;;;;;;7.60;5.10;;;;;;;17.22;100.00;101600.41;5026148;28;20435;-86
2023/09/06 06:24:18;;;;;;;8.10;5.20;;;;;;;17.24;100.00;101609.19;5043081;28;20473;-86
2023/09/06 06:26:52;;;;;;;8.50;5.20;;;;;;;17.16;100.00;101607.91;5028461;28;20449;-85
2023/09/06 06:29:25;;;;;;;8.13;4.75;;;;;;;17.22;100.00;101613.34;5026909;28;20434;-85
2023/09/06 06:31:59;;;;;;;9.63;5.13;;;;;;;17.32;100.00;101607.66;5026530;28;20914;-85
2023/09/06 06:34:29;;;;;;;9.45;5.22;;;;;;;17.44;100.00;101610.75;5027172;28;20926;-86
2023/09/06 06:37:02;;;;;;;7.95;5.20;;;;;;;17.34;100.00;101608.16;5028442;28;20426;-85
2023/09/06 06:39:37;;;;;;;10.48;5.40;;;;;;;17.31;100.00;101601.34;5040020;28;20438;-84
2023/09/06 06:42:10;;;;;;;7.67;5.37;;;;;;;17.33;100.00;101603.78;5039525;28;20450;-85
2023/09/06 06:44:48;;;;;;;11.80;5.20;;;;;;;17.44;100.00;101613.50;5023413;28;20434;-85
2023/09/06 06:47:17;;;;;;;9.48;5.45;;;;;;;17.43;100.00;101611.88;5023189;28;20430;-86
2023/09/06 06:49:51;;;;;;;8.45;5.78;;;;;;;17.38;100.00;101613.91;5023637;28;20433;-86
2023/09/06 06:52:24;;;;;;;8.40;5.45;;;;;;;17.44;100.00;101615.41;5024270;28;20430;-88
2023/09/06 06:54:57;;;;;;;9.00;5.60;;;;;;;17.63;100.00;101623.59;5021998;28;20458;-87
2023/09/06 06:57:31;;;;;;;9.20;5.18;;;;;;;17.60;100.00;101622.28;5022885;28;20426;-85
2023/09/06 07:00:11;;;;;;;8.10;5.50;;;;;;;17.61;100.00;101623.91;5024415;28;20435;-86
2023/09/06 07:02:46;;;;;;;9.55;5.50;;;;;;;17.76;100.00;101621.97;5038765;28;20434;-89
2023/09/06 07:05:19;;;;;;;8.85;5.50;;;;;;;17.87;100.00;101625.34;5026310;28;20434;-88
2023/09/06 07:07:53;;;;;;;9.60;5.65;;;;;;;17.84;100.00;101622.09;5026988;28;20949;-89
2023/09/06 07:10:26;;;;;;;10.15;5.63;;;;;;;17.87;100.00;101619.81;5027472;28;20435;-86
2023/09/06 07:12:59;;;;;;;8.45;5.03;;;;;;;18.00;100.00;101622.59;5027597;28;20430;-89
2023/09/06 07:15:28;;;;;;;9.27;5.22;;;;;;;18.01;100.00;101623.44;4987970;28;20447;-87
2023/09/06 07:18:06;;;;;;;7.97;5.18;;;;;;;18.17;100.00;101627.50;5001079;28;20438;-85
2023/09/06 07:20:40;;;;;;;9.82;5.22;;;;;;;18.22;100.00;101631.28;4996225;28;20799;-88
2023/09/06 07:23:09;;;;;;;9.55;5.28;;;;;;;18.30;100.00;101625.03;5010648;28;20442;-84
2023/09/06 07:25:37;;;;;;;7.90;4.95;;;;;;;18.42;100.00;101635.50;4996177;28;20430;-85
2023/09/06 07:28:05;;;;;;;7.00;4.95;;;;;;;18.49;100.00;101628.44;5005501;28;21999;-85
2023/09/06 07:30:33;;;;;;;10.65;5.10;;;;;;;18.58;100.00;101634.03;5005501;28;20419;-86
2023/09/06 07:33:03;;;;;;;8.77;5.25;;;;;;;18.54;100.00;101635.78;5002112;28;21251;-86
2023/09/06 07:35:36;;;;;;;9.65;5.07;;;;;;;18.56;100.00;101636.28;5006350;28;20431;-88
2023/09/06 07:38:09;;;;;;;11.43;5.10;;;;;;;18.63;100.00;101636.69;5001285;28;20446;-87
2023/09/06 07:40:38;;;;;;;9.65;4.75;;;;;;;18.73;100.00;101640.31;5004122;28;21232;-86
2023/09/06 07:47:35;;;;;;;9.20;4.70;;;;;;;19.16;100.00;101651.69;5031127;28;21343;-87
2023/09/06 07:50:11;;;;;;;11.00;5.10;;;;;;;19.14;100.00;101658.66;5016950;28;20429;-86
2023/09/06 07:52:45;;;;;;;9.43;5.10;;;;;;;19.27;100.00;101659.72;4996465;28;20434;-86
2023/09/06 07:55:18;;;;;;;11.82;4.88;;;;;;;19.46;100.00;101668.59;5000902;28;20430;-86
2023/09/06 07:57:51;;;;;;;10.33;5.50;;;;;;;19.50;100.00;101664.06;5002289;28;20507;-85
2023/09/06 08:00:20;;;;;;;8.93;5.43;;;;;;;19.63;100.00;101675.34;5003061;28;20787;-89
2023/09/06 08:02:48;;;;;;;8.13;4.93;;;;;;;19.78;100.00;101671.38;5002195;28;20414;-89
2023/09/06 08:05:18;;;;;;;7.57;4.73;;;;;;;19.88;100.00;101676.63;4999365;28;20451;-87
2023/09/06 08:07:51;;;;;;;7.20;4.38;;;;;;;20.00;100.00;101676.81;5007856;28;20435;-87
2023/09/06 08:10:22;;;;;;;9.50;4.32;;;;;;;20.13;100.00;101677.03;5008160;28;20435;-87
2023/09/06 08:12:54;;;;;;;7.32;4.55;;;;;;;20.25;100.00;101668.13;5005816;28;20435;-88
2023/09/06 08:15:23;;;;;;;8.73;4.30;;;;;;;20.23;100.00;101668.44;4976720;28;20448;-89
2023/09/06 08:17:52;;;;;;;7.90;4.35;;;;;;;20.32;100.00;101665.69;5000975;28;20418;-87
2023/09/06 08:20:26;;;;;;;8.02;4.72;;;;;;;20.20;100.00;101671.84;5003067;28;20427;-87
2023/09/06 08:22:55;;;;;;;7.15;4.50;;;;;;;20.24;100.00;101683.06;5005365;28;20419;-87
2023/09/06 08:25:28;;;;;;;8.50;4.60;;;;;;;20.42;100.00;101676.44;5016636;28;20442;-88
2023/09/06 08:28:01;;;;;;;7.28;4.22;;;;;;;20.42;100.00;101681.16;5012235;28;20510;-87
2023/09/06 08:30:35;;;;;;;8.80;4.40;;;;;;;20.45;100.00;101680.50;5014156;28;20426;-87
2023/09/06 08:33:08;;;;;;;8.52;4.55;;;;;;;20.43;100.00;101683.59;5007005;28;20435;-87
2023/09/06 08:35:37;;;;;;;6.97;4.13;;;;;;;20.60;100.00;101680.03;5017931;28;20430;-87
2023/09/06 08:38:11;;;;;;;7.13;3.97;;;;;;;20.90;100.00;101686.59;5032953;28;21645;-86
2023/09/06 08:40:44;;;;;;;6.57;4.00;;;;;;;20.86;100.00;101673.75;5013032;28;20434;-85
2023/09/06 08:43:20;;;;;;;8.60;4.13;;;;;;;20.73;100.00;101679.09;5007708;28;20462;-86
2023/09/06 08:45:54;;;;;;;7.10;3.85;;;;;;;20.93;100.00;101681.56;5001088;28;21289;-85
2023/09/06 08:48:28;;;;;;;6.60;3.70;;;;;;;21.09;100.00;101679.91;5005436;28;20431;-86
2023/09/06 08:50:58;;;;;;;7.55;3.78;;;;;;;21.09;100.00;101679.91;5000732;28;20903;-85
2023/09/06 08:53:33;;;;;;;7.70;3.70;;;;;;;21.20;100.00;101677.63;5019782;28;20423;-86
2023/09/06 08:56:08;;;;;;;5.90;3.40;;;;;;;21.23;100.00;101682.50;5017246;28;20441;-86
2023/09/06 08:58:36;;;;;;;6.45;3.30;;;;;;;21.13;100.00;101685.59;5024975;28;21002;-84
2023/09/06 09:01:05;;;;;;;6.20;3.22;;;;;;;21.84;100.00;101687.06;4997317;28;20430;-83
2023/09/06 09:03:38;;;;;;;6.35;3.10;;;;;;;21.52;100.00;101683.75;5005038;28;20427;-85
2023/09/06 09:06:09;;;;;;;6.55;3.25;;;;;;;21.47;100.00;101684.72;5003832;28;20435;-85
2023/09/06 09:08:42;;;;;;;6.80;3.30;;;;;;;21.74;100.00;101677.19;5005165;28;20439;-84
2023/09/06 09:11:18;;;;;;;5.50;3.10;;;;;;;22.05;100.00;101685.19;5016953;28;20514;-85
2023/09/06 09:13:51;;;;;;;7.53;3.20;;;;;;;21.95;100.00;101679.22;5001842;28;20457;-83
2023/09/06 09:16:24;;;;;;;7.80;3.10;;;;;;;22.05;100.00;101682.44;4977031;28;20446;-85
2023/09/06 09:18:57;;;;;;;5.90;3.00;;;;;;;21.89;100.00;101681.34;5001973;28;20427;-85
2023/09/06 09:21:29;;;;;;;5.80;2.92;;;;;;;22.04;100.00;101683.56;5022327;28;21279;-85
2023/09/06 09:24:04;;;;;;;6.10;2.70;;;;;;;21.77;100.00;101684.00;5004737;28;20427;-85
2023/09/06 09:26:41;;;;;;;5.32;2.50;;;;;;;21.82;100.00;101681.03;5002555;28;20442;-85
2023/09/06 09:29:14;;;;;;;5.43;2.73;;;;;;;21.92;100.00;101678.72;5002729;28;20439;-85
2023/09/06 09:31:44;;;;;;;6.53;2.72;;;;;;;21.91;100.00;101679.06;5005033;28;20445;-86
2023/09/06 09:34:17;;;;;;;7.23;3.53;;;;;;;22.20;100.00;101677.44;5003543;28;20438;-84
2023/09/06 09:36:52;;;;;;;5.00;2.65;;;;;;;22.42;100.00;101679.13;5005416;28;20427;-87
2023/09/06 09:39:26;;;;;;;5.47;2.60;;;;;;;23.20;100.00;101677.69;5005962;28;20470;-86
2023/09/06 09:41:57;;;;;;;4.90;2.67;;;;;;;22.60;100.00;101677.03;5003250;28;21164;-86
2023/09/06 09:44:30;;;;;;;4.53;2.30;;;;;;;22.42;100.00;101682.69;5001048;28;20478;-86
2023/09/06 09:47:12;;;;;;;5.40;2.75;;;;;;;22.47;100.00;101675.31;5007518;28;20505;-85
2023/09/06 09:49:41;;;;;;;5.10;2.53;;;;;;;22.53;100.00;101682.31;5008360;28;21045;-86
2023/09/06 09:52:12;;;;;;;3.90;2.38;;;;;;;22.88;100.00;101679.25;5022243;28;20427;-84
2023/09/06 09:54:50;;;;;;;4.93;2.50;;;;;;;22.85;100.00;101674.41;5017466;28;20434;-86
2023/09/06 09:57:26;;;;;;;6.97;2.70;;;;;;;22.80;100.00;101669.03;4999119;28;20958;-86
2023/09/06 10:00:00;;;;;;;5.70;2.53;;;;;;;22.88;100.00;101668.16;5003041;28;20430;-86
2023/09/06 10:02:41;;;;;;;4.60;2.40;;;;;;;23.03;100.00;101677.81;5010000;28;20423;-86
2023/09/06 10:05:12;;;;;;;4.45;2.38;;;;;;;23.03;100.00;101678.63;5002943;28;20431;-86
2023/09/06 10:07:43;;;;;;;8.23;5.10;;;;;;;23.49;100.00;101670.38;5001918;28;23114;-84
2023/09/06 10:10:11;;;;;;;4.85;2.38;;;;;;;23.36;100.00;101671.47;4998514;28;20457;-85
2023/09/06 10:12:46;;;;;;;6.03;3.67;;;;;;;23.25;100.00;101673.88;5002320;28;20435;-84
2023/09/06 10:15:14;;;;;;;5.45;2.40;;;;;;;23.25;100.00;101671.09;4994698;28;20450;-84
2023/09/06 10:17:43;;;;;;;5.97;2.60;;;;;;;23.06;100.00;101674.34;4969900;28;20552;-85
2023/09/06 10:20:13;;;;;;;3.55;2.00;;;;;;;23.07;100.00;101675.97;4992506;28;20443;-86
2023/09/06 10:22:47;;;;;;;4.70;2.10;;;;;;;23.27;100.00;101666.03;4995976;28;20702;-85
2023/09/06 10:25:20;;;;;;;3.65;2.08;;;;;;;23.57;100.00;101668.63;4993524;28;20443;-83
2023/09/06 10:27:55;;;;;;;6.20;2.17;;;;;;;23.56;100.00;101670.59;5016647;28;20434;-88
2023/09/06 10:30:44;;;;;;;4.30;2.10;;;;;;;23.61;100.00;101672.34;4993950;28;20506;-83
2023/09/06 10:33:56;;;;;;;4.82;2.22;;;;;;;23.65;100.00;101666.91;4995491;28;20426;-83
2023/09/06 10:36:28;;;;;;;6.40;2.20;;;;;;;23.70;100.00;101669.47;5001867;28;20438;-85
2023/09/06 10:39:16;;;;;;;3.80;1.90;;;;;;;23.60;100.00;101660.41;5014736;28;20442;-86
2023/09/06 10:42:29;;;;;;;4.05;1.98;;;;;;;23.50;100.00;101663.63;5021810;28;21269;-86
2023/09/06 10:45:15;;;;;;;3.60;1.98;;;;;;;23.44;100.00;101668.59;5002302;28;20435;-85
2023/09/06 10:47:43;;;;;;;4.50;2.10;;;;;;;24.03;100.00;101663.00;4995691;28;20437;-85
2023/09/06 10:50:19;;;;;;;9.15;4.57;;;;;;;24.14;100.00;101655.00;4990996;28;20442;-83
2023/09/06 10:52:58;;;;;;;6.72;2.90;;;;;;;24.09;100.00;101661.63;5003909;28;20438;-86
2023/09/06 10:55:46;;;;;;;5.53;2.50;;;;;;;24.20;100.00;101654.41;5002845;28;20496;-85
2023/09/06 10:58:14;;;;;;;5.07;2.33;;;;;;;24.68;100.00;101656.63;5002643;28;20454;-86
2023/09/06 11:01:14;;;;;;;5.97;2.20;;;;;;;24.55;100.00;101662.22;4996382;28;20439;-85
2023/09/06 11:03:48;;;;;;;5.13;2.00;;;;;;;24.71;100.00;101659.53;5000947;28;20423;-85
2023/09/06 11:06:24;;;;;;;4.68;2.00;;;;;;;25.16;100.00;101652.03;5005154;28;20465;-86
2023/09/06 11:08:53;;;;;;;5.10;2.55;;;;;;;24.89;100.00;101650.91;5000239;28;20422;-85
2023/09/06 11:11:27;;;;;;;4.50;2.10;;;;;;;24.44;100.00;101659.13;4998229;28;20434;-84
2023/09/06 11:14:03;;;;;;;6.28;2.15;;;;;;;24.19;100.00;101657.53;4996739;28;20438;-86
2023/09/06 11:16:36;;;;;;;7.27;4.83;;;;;;;24.41;100.00;101650.66;4979645;28;20738;-86
2023/09/06 11:19:05;;;;;;;11.40;7.63;;;;;;;24.47;100.00;101656.78;5010183;28;20434;-87
2023/09/06 11:21:34;;;;;;;4.35;2.30;;;;;;;24.43;100.00;101649.16;5017105;28;20441;-85
2023/09/06 11:24:07;;;;;;;4.35;2.10;;;;;;;24.87;100.00;101651.25;4989336;28;20423;-86
2023/09/06 11:26:43;;;;;;;3.78;2.00;;;;;;;24.94;100.00;101654.22;4996797;28;20438;-85
2023/09/06 11:29:14;;;;;;;4.15;1.98;;;;;;;24.84;100.00;101651.16;4998607;28;20427;-86
2023/09/06 11:31:45;;;;;;;2.67;1.70;;;;;;;24.96;100.00;101648.31;4995849;28;20477;-85
2023/09/06 11:34:19;;;;;;;5.13;2.03;;;;;;;25.71;94.50;101640.31;4998398;28;20458;-85
2023/09/06 11:36:53;;;;;;;5.88;2.20;;;;;;;25.32;100.00;101652.06;5005455;28;20442;-87
2023/09/06 11:39:28;;;;;;;3.70;2.20;;;;;;;25.09;100.00;101655.44;5017191;28;20431;-86
2023/09/06 11:42:00;;;;;;;4.45;2.20;;;;;;;24.91;100.00;101649.38;4997799;28;20803;-85
2023/09/06 11:44:34;;;;;;;3.83;1.85;;;;;;;25.08;100.00;101651.03;4997320;28;21231;-85